Time;durP1;ratioP1;P1;durP2;ratioP2;P2;SDS_P1;SDS_P2;PMS_P1;PMS_P2;Temp;Humidity;BMP_temperature;BMP_pressure;BME280_temperature;BME280_humidity;BME280_pressure;Samples;Min_cycle;Max_cycle;Signal;HPM_P1;HPM_P2
2023/01/30 00:01:39;;;;;;;20.27;8.05;;;;;;;;;;6183881;23;20365;-86
2023/01/30 00:04:04;;;;;;;28.00;8.93;;;;;;;;;;6183270;23;20012;-87
2023/01/30 00:06:30;;;;;;;19.48;8.60;;;;;;;;;;6182695;23;20001;-88
2023/01/30 00:08:55;;;;;;;23.00;8.55;;;;;;;;;;6184444;23;20403;-84
2023/01/30 00:11:21;;;;;;;20.88;8.55;;;;;;;;;;6184607;23;20357;-87
2023/01/30 00:13:47;;;;;;;20.75;8.23;;;;;;;;;;6184115;23;20015;-85
2023/01/30 00:16:12;;;;;;;19.48;8.43;;;;;;;;;;6193019;23;19985;-85
2023/01/30 00:18:38;;;;;;;24.67;9.45;;;;;;;;;;6189175;23;20086;-87
2023/01/30 00:21:05;;;;;;;24.88;9.63;;;;;;;;;;6158495;23;20001;-87
2023/01/30 00:23:31;;;;;;;26.08;9.32;;;;;;;;;;6183238;23;20001;-87
2023/01/30 00:25:57;;;;;;;24.08;9.50;;;;;;;;;;6184712;23;20083;-85
2023/01/30 00:28:22;;;;;;;28.83;11.38;;;;;;;;;;6158576;23;20058;-89
2023/01/30 00:30:52;;;;;;;33.53;10.82;;;;;;;;;;6182618;23;20055;-85
2023/01/30 00:33:18;;;;;;;30.33;10.98;;;;;;;;;;6183107;23;20012;-87
2023/01/30 00:35:44;;;;;;;26.83;10.63;;;;;;;;;;6192003;23;20008;-85
2023/01/30 00:38:10;;;;;;;31.15;10.95;;;;;;;;;;6188499;23;20425;-87
2023/01/30 00:40:35;;;;;;;25.15;9.65;;;;;;;;;;6192603;23;20008;-85
2023/01/30 00:48:29;;;;;;;30.95;11.07;;;;;;;;;;6164292;23;20012;-86
2023/01/30 00:50:54;;;;;;;35.25;11.80;;;;;;;;;;6157554;23;20009;-86
2023/01/30 00:53:19;;;;;;;28.60;10.75;;;;;;;;;;6184300;23;20009;-87
2023/01/30 00:55:45;;;;;;;25.27;10.82;;;;;;;;;;6189324;23;20001;-86
2023/01/30 00:58:11;;;;;;;28.13;10.75;;;;;;;;;;6184483;23;20005;-85
2023/01/30 01:00:37;;;;;;;27.65;10.85;;;;;;;;;;6183042;23;20067;-89
2023/01/30 01:03:02;;;;;;;29.05;10.45;;;;;;;;;;6183123;23;20087;-88
2023/01/30 01:05:28;;;;;;;24.52;9.70;;;;;;;;;;6184419;23;20016;-88
2023/01/30 01:08:12;;;;;;;24.98;9.48;;;;;;;;;;6183761;23;20387;-86
2023/01/30 01:10:37;;;;;;;23.83;9.40;;;;;;;;;;6182960;23;20001;-88
2023/01/30 01:13:05;;;;;;;21.15;8.43;;;;;;;;;;6183995;23;20015;-83
2023/01/30 01:15:30;;;;;;;19.95;9.02;;;;;;;;;;6164855;23;20001;-85
2023/01/30 01:17:56;;;;;;;25.90;10.32;;;;;;;;;;6184894;23;20012;-84
2023/01/30 01:20:21;;;;;;;22.95;8.95;;;;;;;;;;6186440;23;20063;-88
2023/01/30 01:22:49;;;;;;;21.95;9.25;;;;;;;;;;6186933;23;20423;-89
2023/01/30 01:25:14;;;;;;;20.08;8.68;;;;;;;;;;6185372;23;20001;-87
2023/01/30 01:27:40;;;;;;;20.45;8.88;;;;;;;;;;6188018;23;20077;-87
2023/01/30 01:30:06;;;;;;;19.77;9.10;;;;;;;;;;6189701;23;20072;-88
2023/01/30 01:32:31;;;;;;;23.75;10.00;;;;;;;;;;6186533;23;20009;-85
2023/01/30 01:34:57;;;;;;;21.05;8.77;;;;;;;;;;6196175;23;20008;-86
2023/01/30 01:37:23;;;;;;;21.73;8.90;;;;;;;;;;6199590;23;20071;-85
2023/01/30 01:42:34;;;;;;;18.95;7.85;;;;;;;;;;6214085;23;20008;-84
2023/01/30 01:45:12;;;;;;;18.52;8.38;;;;;;;;;;6187610;23;20048;-87
2023/01/30 01:47:48;;;;;;;17.30;7.88;;;;;;;;;;6193083;23;20447;-89
2023/01/30 01:50:29;;;;;;;16.63;7.50;;;;;;;;;;6193073;23;20020;-83
2023/01/30 01:52:55;;;;;;;19.48;7.82;;;;;;;;;;6196443;23;20023;-84
2023/01/30 01:55:21;;;;;;;18.95;7.28;;;;;;;;;;6167847;23;20017;-85
2023/01/30 01:58:14;;;;;;;19.42;6.88;;;;;;;;;;6191549;23;20001;-88
2023/01/30 02:00:39;;;;;;;18.35;7.40;;;;;;;;;;6180814;23;20013;-87
2023/01/30 02:03:06;;;;;;;15.65;7.70;;;;;;;;;;6184334;23;20012;-87
2023/01/30 02:05:34;;;;;;;19.13;7.85;;;;;;;;;;6185160;23;20013;-87
2023/01/30 02:08:00;;;;;;;17.58;7.38;;;;;;;;;;6162953;23;20005;-86
2023/01/30 02:10:47;;;;;;;20.35;8.43;;;;;;;;;;6186610;23;20088;-89
2023/01/30 02:13:13;;;;;;;16.45;7.55;;;;;;;;;;6188342;23;20005;-87
2023/01/30 02:15:38;;;;;;;17.90;7.50;;;;;;;;;;6186397;23;20013;-84
2023/01/30 02:18:03;;;;;;;20.10;8.40;;;;;;;;;;6154714;23;20108;-86
2023/01/30 02:20:38;;;;;;;17.67;8.20;;;;;;;;;;6158646;23;20087;-87
2023/01/30 02:23:19;;;;;;;18.50;8.00;;;;;;;;;;6185166;23;19993;-86
2023/01/30 02:26:06;;;;;;;18.42;8.27;;;;;;;;;;6185986;23;20073;-84
2023/01/30 02:28:48;;;;;;;21.05;8.55;;;;;;;;;;6184933;23;19993;-85
2023/01/30 02:31:16;;;;;;;20.27;8.68;;;;;;;;;;6186849;23;20041;-86
2023/01/30 02:33:52;;;;;;;18.08;7.32;;;;;;;;;;6189651;23;20389;-86
2023/01/30 02:36:36;;;;;;;20.77;9.05;;;;;;;;;;6159906;23;20450;-84
2023/01/30 02:39:10;;;;;;;19.90;8.60;;;;;;;;;;6189585;23;20009;-87
2023/01/30 02:41:59;;;;;;;22.38;8.30;;;;;;;;;;6165337;23;20047;-87
2023/01/30 02:44:40;;;;;;;18.77;7.85;;;;;;;;;;6161446;23;20005;-88
2023/01/30 02:47:09;;;;;;;17.35;7.28;;;;;;;;;;6189956;23;20076;-87
2023/01/30 02:49:44;;;;;;;15.82;7.50;;;;;;;;;;6189233;23;20008;-87
2023/01/30 02:52:10;;;;;;;18.42;7.97;;;;;;;;;;6191021;23;20023;-87
2023/01/30 02:54:35;;;;;;;17.23;7.32;;;;;;;;;;6160518;23;20009;-87
2023/01/30 02:57:01;;;;;;;12.00;6.10;;;;;;;;;;6183712;23;20092;-86
2023/01/30 02:59:35;;;;;;;17.63;8.15;;;;;;;;;;6189260;23;20012;-89
2023/01/30 03:02:06;;;;;;;21.02;8.60;;;;;;;;;;6158899;23;20424;-87
2023/01/30 03:04:50;;;;;;;16.42;7.32;;;;;;;;;;6185267;23;20009;-87
2023/01/30 03:07:40;;;;;;;17.33;7.55;;;;;;;;;;6160374;23;20005;-87
2023/01/30 03:10:31;;;;;;;18.85;7.75;;;;;;;;;;6191096;23;20032;-86
2023/01/30 03:13:09;;;;;;;22.23;8.52;;;;;;;;;;6165724;23;20428;-86
2023/01/30 03:15:38;;;;;;;16.13;6.85;;;;;;;;;;6183730;23;20008;-88
2023/01/30 03:18:04;;;;;;;17.30;7.97;;;;;;;;;;6184541;23;20425;-85
2023/01/30 03:20:30;;;;;;;22.90;8.82;;;;;;;;;;6184345;23;20005;-85
2023/01/30 03:22:55;;;;;;;18.70;7.88;;;;;;;;;;6153292;23;20001;-88
2023/01/30 03:25:22;;;;;;;22.65;8.68;;;;;;;;;;6184652;23;20095;-88
2023/01/30 03:27:49;;;;;;;17.23;8.13;;;;;;;;;;6159094;23;20001;-89
2023/01/30 03:30:14;;;;;;;16.10;7.47;;;;;;;;;;6170922;23;20010;-87
2023/01/30 03:32:40;;;;;;;20.25;8.45;;;;;;;;;;6187115;23;20332;-88
2023/01/30 03:35:05;;;;;;;18.40;7.05;;;;;;;;;;6158324;23;20016;-87
2023/01/30 03:37:31;;;;;;;16.25;7.40;;;;;;;;;;6185196;23;20004;-87
2023/01/30 03:39:57;;;;;;;15.32;7.03;;;;;;;;;;6184060;23;20036;-85
2023/01/30 03:42:22;;;;;;;24.75;9.75;;;;;;;;;;6134282;23;20011;-84
2023/01/30 03:44:48;;;;;;;21.10;8.55;;;;;;;;;;6184852;23;20095;-87
2023/01/30 03:47:13;;;;;;;19.75;8.45;;;;;;;;;;6185017;23;20001;-86
2023/01/30 03:49:39;;;;;;;20.05;8.10;;;;;;;;;;6201446;23;20001;-85
2023/01/30 03:52:04;;;;;;;19.23;8.05;;;;;;;;;;6189417;23;20083;-87
2023/01/30 03:54:30;;;;;;;20.70;8.40;;;;;;;;;;6184803;23;20064;-88
2023/01/30 03:56:55;;;;;;;23.48;8.68;;;;;;;;;;6184593;23;20001;-85
2023/01/30 03:59:20;;;;;;;18.27;7.95;;;;;;;;;;6183115;23;20435;-86
2023/01/30 04:01:46;;;;;;;19.77;8.57;;;;;;;;;;6184315;23;20348;-91
2023/01/30 04:04:11;;;;;;;21.73;8.85;;;;;;;;;;6184874;23;20053;-87
2023/01/30 04:06:37;;;;;;;22.45;9.68;;;;;;;;;;6184748;23;20028;-89
2023/01/30 04:09:02;;;;;;;23.95;9.18;;;;;;;;;;6194789;23;20016;-87
2023/01/30 04:11:28;;;;;;;19.70;9.23;;;;;;;;;;6187568;23;20005;-87
2023/01/30 04:13:53;;;;;;;24.58;9.35;;;;;;;;;;6184901;23;20011;-86
2023/01/30 04:16:21;;;;;;;24.17;9.20;;;;;;;;;;6185039;23;20117;-89
2023/01/30 04:18:46;;;;;;;23.02;9.65;;;;;;;;;;6185243;23;20035;-88
2023/01/30 04:21:12;;;;;;;19.40;9.45;;;;;;;;;;6191059;23;20009;-88
2023/01/30 04:23:37;;;;;;;23.08;9.48;;;;;;;;;;6194183;23;20399;-88
2023/01/30 04:26:03;;;;;;;21.25;9.40;;;;;;;;;;6163172;23;20025;-87
2023/01/30 04:28:28;;;;;;;24.02;10.15;;;;;;;;;;6200388;23;20453;-88
2023/01/30 04:30:54;;;;;;;22.67;10.07;;;;;;;;;;6194218;23;20012;-88
2023/01/30 04:33:19;;;;;;;25.23;9.57;;;;;;;;;;6188743;23;20028;-88
2023/01/30 04:35:58;;;;;;;27.13;10.65;;;;;;;;;;6161699;23;20009;-87
2023/01/30 04:38:24;;;;;;;29.48;12.93;;;;;;;;;;6187660;23;20005;-84
2023/01/30 04:40:51;;;;;;;35.47;13.60;;;;;;;;;;6160751;23;20402;-86
2023/01/30 04:43:17;;;;;;;28.73;12.25;;;;;;;;;;6183471;23;20005;-87
2023/01/30 04:45:45;;;;;;;21.88;8.48;;;;;;;;;;6185271;23;20005;-87
2023/01/30 04:48:12;;;;;;;30.50;11.90;;;;;;;;;;6162495;23;20005;-86
2023/01/30 04:50:38;;;;;;;21.40;9.57;;;;;;;;;;6183153;23;20013;-89
2023/01/30 04:53:03;;;;;;;32.38;13.45;;;;;;;;;;6182991;23;20001;-89
2023/01/30 04:55:29;;;;;;;26.40;11.50;;;;;;;;;;6184841;23;20037;-88
2023/01/30 04:57:54;;;;;;;30.90;12.95;;;;;;;;;;6184089;23;19997;-87
2023/01/30 05:00:20;;;;;;;37.45;15.82;;;;;;;;;;6158109;23;20009;-90
2023/01/30 05:02:45;;;;;;;37.03;15.48;;;;;;;;;;6184608;23;20001;-88
2023/01/30 05:05:11;;;;;;;41.20;15.05;;;;;;;;;;6185431;23;20068;-90
2023/01/30 05:07:36;;;;;;;38.53;15.70;;;;;;;;;;6189402;23;19997;-89
2023/01/30 05:10:02;;;;;;;34.40;13.63;;;;;;;;;;6186439;23;20044;-89
2023/01/30 05:12:27;;;;;;;26.50;10.35;;;;;;;;;;6185455;23;20016;-88
2023/01/30 05:14:53;;;;;;;23.80;10.60;;;;;;;;;;6184804;23;20464;-87
2023/01/30 05:17:19;;;;;;;22.45;8.95;;;;;;;;;;6185780;23;20417;-87
2023/01/30 05:19:44;;;;;;;15.13;6.00;;;;;;;;;;6184562;23;20032;-89
2023/01/30 05:22:09;;;;;;;22.85;9.60;;;;;;;;;;6185027;23;20028;-90
2023/01/30 05:24:35;;;;;;;24.48;10.50;;;;;;;;;;6185593;23;19997;-91
2023/01/30 05:27:01;;;;;;;20.23;9.00;;;;;;;;;;6168544;23;20008;-89
2023/01/30 05:29:27;;;;;;;20.10;8.45;;;;;;;;;;6186964;23;20001;-90
2023/01/30 05:31:52;;;;;;;23.63;9.35;;;;;;;;;;6187951;23;20005;-88
2023/01/30 05:34:17;;;;;;;27.08;10.35;;;;;;;;;;6198490;23;20009;-90
2023/01/30 05:36:43;;;;;;;29.55;12.40;;;;;;;;;;6185351;23;20020;-89
2023/01/30 05:39:08;;;;;;;27.02;11.32;;;;;;;;;;6184715;23;20005;-85
2023/01/30 05:41:34;;;;;;;24.45;10.10;;;;;;;;;;6186355;23;20476;-88
2023/01/30 05:43:59;;;;;;;22.73;8.93;;;;;;;;;;6186937;23;20005;-84
2023/01/30 05:46:25;;;;;;;19.75;8.38;;;;;;;;;;6184170;23;20009;-84
2023/01/30 05:48:51;;;;;;;20.80;9.00;;;;;;;;;;6187020;23;20005;-89
2023/01/30 05:51:19;;;;;;;19.60;9.07;;;;;;;;;;6185535;23;20019;-86
2023/01/30 05:53:46;;;;;;;27.60;10.20;;;;;;;;;;6139640;23;20009;-89
2023/01/30 05:56:12;;;;;;;26.30;8.93;;;;;;;;;;6187659;23;20004;-86
2023/01/30 06:02:01;;;;;;;25.75;9.30;;;;;;;;;;6191520;23;20019;-86
2023/01/30 06:04:26;;;;;;;26.83;9.73;;;;;;;;;;6195160;23;20021;-90
2023/01/30 06:06:52;;;;;;;29.20;11.02;;;;;;;;;;6167656;23;20012;-88
2023/01/30 06:09:17;;;;;;;26.95;10.57;;;;;;;;;;6193216;23;20079;-83
2023/01/30 06:11:43;;;;;;;19.83;9.45;;;;;;;;;;6185172;23;20063;-85
2023/01/30 06:14:09;;;;;;;18.70;9.05;;;;;;;;;;6184960;23;20001;-81
2023/01/30 06:16:35;;;;;;;30.15;10.55;;;;;;;;;;6191166;23;20004;-82
2023/01/30 06:19:01;;;;;;;25.65;10.18;;;;;;;;;;6194435;23;20001;-83
2023/01/30 06:21:26;;;;;;;24.92;9.77;;;;;;;;;;6190960;23;20008;-82
2023/01/30 06:23:52;;;;;;;32.25;11.50;;;;;;;;;;6190003;23;20056;-84
2023/01/30 06:26:17;;;;;;;32.70;10.75;;;;;;;;;;6186520;23;20447;-81
2023/01/30 06:28:43;;;;;;;26.20;10.48;;;;;;;;;;6186980;23;20365;-82
2023/01/30 06:31:08;;;;;;;31.58;10.38;;;;;;;;;;6189656;23;20040;-84
2023/01/30 06:33:34;;;;;;;29.70;10.30;;;;;;;;;;6188862;23;20239;-82
2023/01/30 06:35:59;;;;;;;24.52;10.07;;;;;;;;;;6188502;23;20046;-82
2023/01/30 06:38:25;;;;;;;86.50;35.42;;;;;;;;;;6189417;23;20011;-83
2023/01/30 06:40:50;;;;;;;53.65;20.02;;;;;;;;;;6189063;23;20005;-83
2023/01/30 06:43:16;;;;;;;34.03;15.93;;;;;;;;;;6191157;23;20055;-82
2023/01/30 06:45:41;;;;;;;71.70;33.67;;;;;;;;;;6190563;23;20009;-83
2023/01/30 06:48:07;;;;;;;53.75;25.00;;;;;;;;;;6192930;23;20053;-82
2023/01/30 06:50:35;;;;;;;42.28;18.77;;;;;;;;;;6190733;23;20310;-82
2023/01/30 06:53:01;;;;;;;44.13;18.42;;;;;;;;;;6201379;23;19997;-82
2023/01/30 06:55:34;;;;;;;42.67;19.77;;;;;;;;;;6172158;23;20013;-85
2023/01/30 06:58:07;;;;;;;58.65;26.98;;;;;;;;;;6191805;23;20012;-82
2023/01/30 07:00:33;;;;;;;31.33;14.63;;;;;;;;;;6185917;23;20071;-82
2023/01/30 07:02:59;;;;;;;23.98;11.93;;;;;;;;;;6184176;23;20001;-80
2023/01/30 07:05:27;;;;;;;27.17;10.98;;;;;;;;;;6183664;23;20009;-84
2023/01/30 07:07:58;;;;;;;29.90;12.20;;;;;;;;;;6179147;23;20012;-83
2023/01/30 07:10:25;;;;;;;28.48;11.80;;;;;;;;;;6182620;23;20012;-85
2023/01/30 07:12:50;;;;;;;23.00;10.35;;;;;;;;;;6184900;23;20488;-82
2023/01/30 07:15:16;;;;;;;24.45;10.63;;;;;;;;;;6185298;23;20012;-86
2023/01/30 07:17:41;;;;;;;21.27;9.82;;;;;;;;;;6182444;23;20008;-83
2023/01/30 07:20:08;;;;;;;23.77;9.65;;;;;;;;;;6176674;23;20015;-84
2023/01/30 07:22:35;;;;;;;24.20;10.23;;;;;;;;;;6182956;23;20125;-83
2023/01/30 07:25:00;;;;;;;20.95;9.48;;;;;;;;;;6185635;23;20005;-83
2023/01/30 07:27:26;;;;;;;22.92;10.85;;;;;;;;;;6185312;23;20095;-85
2023/01/30 07:29:51;;;;;;;24.23;9.95;;;;;;;;;;6189055;23;20004;-84
2023/01/30 07:32:18;;;;;;;25.25;11.02;;;;;;;;;;6183982;23;20036;-85
2023/01/30 07:34:44;;;;;;;20.15;9.95;;;;;;;;;;6183823;23;20047;-86
2023/01/30 07:37:10;;;;;;;26.38;10.80;;;;;;;;;;6184051;23;20005;-85
2023/01/30 07:39:35;;;;;;;27.60;10.48;;;;;;;;;;6183909;23;20503;-84
2023/01/30 07:42:01;;;;;;;26.02;10.90;;;;;;;;;;6187834;23;20016;-84
2023/01/30 07:44:26;;;;;;;29.42;12.65;;;;;;;;;;6191563;23;20001;-82
2023/01/30 07:46:52;;;;;;;26.52;11.02;;;;;;;;;;6183751;23;20505;-81
2023/01/30 07:49:25;;;;;;;25.33;10.73;;;;;;;;;;6186038;23;20321;-82
2023/01/30 07:51:51;;;;;;;24.38;10.80;;;;;;;;;;6183690;23;20021;-80
2023/01/30 07:54:17;;;;;;;26.00;10.85;;;;;;;;;;6185018;23;20032;-81
2023/01/30 07:56:56;;;;;;;27.33;10.30;;;;;;;;;;6183642;23;20060;-81
2023/01/30 07:59:23;;;;;;;25.70;11.52;;;;;;;;;;6184695;23;20016;-81
2023/01/30 08:01:49;;;;;;;19.83;8.77;;;;;;;;;;6184377;23;20009;-82
2023/01/30 08:04:15;;;;;;;27.20;11.27;;;;;;;;;;6180655;23;20020;-82
2023/01/30 08:06:41;;;;;;;27.40;10.90;;;;;;;;;;6180280;23;20001;-81
2023/01/30 08:09:07;;;;;;;26.33;11.40;;;;;;;;;;6184954;23;20025;-83
2023/01/30 08:11:33;;;;;;;30.80;14.05;;;;;;;;;;6183742;23;20031;-81
2023/01/30 08:13:59;;;;;;;24.10;10.75;;;;;;;;;;6182263;23;20516;-80
2023/01/30 08:16:24;;;;;;;22.83;9.95;;;;;;;;;;6183703;23;20001;-80
2023/01/30 08:18:52;;;;;;;21.98;10.85;;;;;;;;;;6187272;23;20016;-80
2023/01/30 08:21:18;;;;;;;31.17;13.07;;;;;;;;;;6181968;23;20293;-81
2023/01/30 08:23:43;;;;;;;29.92;11.02;;;;;;;;;;6189202;23;20000;-79
2023/01/30 08:26:15;;;;;;;20.75;10.07;;;;;;;;;;6185998;23;20324;-81
2023/01/30 08:28:40;;;;;;;30.88;11.40;;;;;;;;;;6184475;23;20005;-80
2023/01/30 08:31:12;;;;;;;29.60;14.38;;;;;;;;;;6186076;23;20012;-80
2023/01/30 08:33:37;;;;;;;27.50;11.80;;;;;;;;;;6187596;23;20005;-81
2023/01/30 08:36:04;;;;;;;28.10;10.15;;;;;;;;;;6183357;23;20013;-80
2023/01/30 08:38:29;;;;;;;22.88;9.43;;;;;;;;;;6183495;23;20005;-82
2023/01/30 08:40:56;;;;;;;22.55;10.48;;;;;;;;;;6185514;23;20154;-82
2023/01/30 08:43:22;;;;;;;26.92;10.57;;;;;;;;;;6185300;23;20016;-79
2023/01/30 08:45:48;;;;;;;20.52;8.20;;;;;;;;;;6184586;23;20001;-80
2023/01/30 08:48:13;;;;;;;23.17;10.23;;;;;;;;;;6181280;23;20009;-79
2023/01/30 08:50:41;;;;;;;26.23;10.55;;;;;;;;;;6183804;23;20005;-80
2023/01/30 08:53:07;;;;;;;25.10;9.75;;;;;;;;;;6186642;23;20051;-79
2023/01/30 08:55:34;;;;;;;25.55;10.88;;;;;;;;;;6182216;23;20022;-80
2023/01/30 08:58:03;;;;;;;25.77;10.48;;;;;;;;;;6185006;23;20013;-80
2023/01/30 09:00:31;;;;;;;25.33;10.48;;;;;;;;;;6158643;23;20027;-81
2023/01/30 09:02:57;;;;;;;24.58;11.05;;;;;;;;;;6186514;23;20063;-82
2023/01/30 09:05:23;;;;;;;21.08;9.35;;;;;;;;;;6186933;23;20001;-81
2023/01/30 09:07:49;;;;;;;25.10;10.48;;;;;;;;;;6185465;23;20024;-80
2023/01/30 09:10:14;;;;;;;23.30;11.73;;;;;;;;;;6185019;23;20083;-80
2023/01/30 09:12:40;;;;;;;22.60;10.73;;;;;;;;;;6184155;23;20020;-82
2023/01/30 09:15:06;;;;;;;23.42;10.75;;;;;;;;;;6185691;23;20122;-83
2023/01/30 09:17:31;;;;;;;22.20;9.75;;;;;;;;;;6187533;23;19997;-83
2023/01/30 09:19:57;;;;;;;30.67;11.55;;;;;;;;;;6162626;23;20001;-82
2023/01/30 09:22:26;;;;;;;29.98;11.75;;;;;;;;;;6190085;23;20005;-79
2023/01/30 09:24:52;;;;;;;29.70;11.25;;;;;;;;;;6187282;23;20024;-80
2023/01/30 09:27:17;;;;;;;21.98;10.63;;;;;;;;;;6189971;23;20013;-81
2023/01/30 09:29:42;;;;;;;20.75;9.60;;;;;;;;;;6187458;23;20001;-80
2023/01/30 09:32:08;;;;;;;26.85;11.38;;;;;;;;;;6193208;23;20005;-81
2023/01/30 09:34:33;;;;;;;24.17;11.45;;;;;;;;;;6189433;23;20005;-80
2023/01/30 09:37:00;;;;;;;31.95;10.60;;;;;;;;;;6195846;23;20047;-81
2023/01/30 09:39:26;;;;;;;25.40;12.25;;;;;;;;;;6192704;23;20012;-78
2023/01/30 09:42:03;;;;;;;26.35;10.55;;;;;;;;;;6190902;23;20005;-83
2023/01/30 09:45:06;;;;;;;28.35;11.95;;;;;;;;;;6189051;23;20383;-80
2023/01/30 09:47:41;;;;;;;36.47;13.77;;;;;;;;;;6189981;23;20028;-80
2023/01/30 09:50:20;;;;;;;31.85;12.93;;;;;;;;;;6185986;23;20009;-82
2023/01/30 09:52:53;;;;;;;37.38;15.95;;;;;;;;;;6180002;23;20016;-82
2023/01/30 09:55:24;;;;;;;28.75;12.25;;;;;;;;;;6186229;23;20384;-83
2023/01/30 09:57:50;;;;;;;32.72;11.43;;;;;;;;;;6185384;23;20004;-82
2023/01/30 10:00:29;;;;;;;30.23;12.07;;;;;;;;;;6161097;23;20013;-81
2023/01/30 10:03:00;;;;;;;29.05;11.73;;;;;;;;;;6185859;23;20377;-82
2023/01/30 10:05:41;;;;;;;38.03;13.65;;;;;;;;;;6186031;23;20009;-82
2023/01/30 10:08:09;;;;;;;33.28;14.02;;;;;;;;;;6161250;23;20352;-80
2023/01/30 10:10:39;;;;;;;32.25;12.93;;;;;;;;;;6183369;23;20388;-80
2023/01/30 10:13:19;;;;;;;33.95;13.43;;;;;;;;;;6181428;23;20001;-82
2023/01/30 10:16:17;;;;;;;;;;;;;;;;;;6185406;23;20009;-82
2023/01/30 10:19:06;;;;;;;25.80;11.30;;;;;;;;;;6180783;23;20374;-81
2023/01/30 10:21:37;;;;;;;27.83;11.45;;;;;;;;;;6173669;23;20016;-82
2023/01/30 10:24:27;;;;;;;26.90;12.35;;;;;;;;;;6185884;23;20528;-82
2023/01/30 10:26:52;;;;;;;26.25;11.65;;;;;;;;;;6184480;23;20001;-80
2023/01/30 10:29:33;;;;;;;26.60;12.98;;;;;;;;;;6183009;23;20015;-82
2023/01/30 10:32:37;;;;;;;30.77;14.68;;;;;;;;;;6159119;23;20012;-81
2023/01/30 10:35:32;;;;;;;34.08;13.98;;;;;;;;;;6182950;23;20407;-82
2023/01/30 10:38:11;;;;;;;26.98;12.60;;;;;;;;;;6186210;23;20032;-83
2023/01/30 10:40:51;;;;;;;26.25;13.05;;;;;;;;;;6188626;23;20012;-79
2023/01/30 10:43:37;;;;;;;27.65;13.93;;;;;;;;;;6158633;23;20051;-82
2023/01/30 10:46:08;;;;;;;27.27;12.40;;;;;;;;;;6182028;23;20538;-80
2023/01/30 10:49:02;;;;;;;27.83;13.20;;;;;;;;;;6185917;23;20436;-83
2023/01/30 10:51:33;;;;;;;30.10;14.25;;;;;;;;;;6182644;23;20084;-84
2023/01/30 10:54:13;;;;;;;27.13;12.45;;;;;;;;;;6179986;23;20055;-83
2023/01/30 10:56:47;;;;;;;30.77;13.60;;;;;;;;;;6162778;23;20342;-80
2023/01/30 10:59:48;;;;;;;29.17;13.93;;;;;;;;;;6185460;23;20027;-83
2023/01/30 11:02:43;;;;;;;32.45;13.30;;;;;;;;;;6180457;23;20013;-83
2023/01/30 11:05:17;;;;;;;28.40;14.07;;;;;;;;;;6167818;23;20135;-81
2023/01/30 11:07:44;;;;;;;37.28;16.08;;;;;;;;;;6187561;23;20005;-82
2023/01/30 11:10:22;;;;;;;30.45;13.07;;;;;;;;;;6162067;23;20017;-82
2023/01/30 11:12:51;;;;;;;25.70;13.30;;;;;;;;;;6187429;23;20392;-80
2023/01/30 11:15:17;;;;;;;25.33;12.90;;;;;;;;;;6166811;23;20008;-82
2023/01/30 11:17:44;;;;;;;28.50;12.98;;;;;;;;;;6196010;23;20005;-80
2023/01/30 11:20:14;;;;;;;30.70;13.90;;;;;;;;;;6198959;23;20012;-81
2023/01/30 11:22:50;;;;;;;;;;;;;;;;;;6194140;23;20036;-80
2023/01/30 11:25:51;;;;;;;27.73;14.00;;;;;;;;;;6199540;23;20331;-83
2023/01/30 11:28:18;;;;;;;28.67;14.50;;;;;;;;;;6201111;23;20001;-82
2023/01/30 11:30:49;;;;;;;24.58;13.25;;;;;;;;;;6198177;23;20036;-81
2023/01/30 11:33:16;;;;;;;28.27;13.80;;;;;;;;;;6172209;23;20126;-83
2023/01/30 11:36:03;;;;;;;26.48;12.68;;;;;;;;;;6198110;23;20057;-80
2023/01/30 11:38:31;;;;;;;34.38;15.90;;;;;;;;;;6185988;23;20009;-82
2023/01/30 11:41:19;;;;;;;30.98;13.70;;;;;;;;;;6193236;23;20080;-80
2023/01/30 11:43:47;;;;;;;34.50;16.02;;;;;;;;;;6145579;23;20005;-82
2023/01/30 11:46:16;;;;;;;39.15;14.75;;;;;;;;;;6190987;23;20057;-82
2023/01/30 11:49:02;;;;;;;37.22;14.52;;;;;;;;;;6161505;23;20012;-82
2023/01/30 11:51:28;;;;;;;32.95;15.88;;;;;;;;;;6163673;23;20017;-80
2023/01/30 11:54:01;;;;;;;32.78;15.65;;;;;;;;;;6186209;23;20009;-82
2023/01/30 11:56:48;;;;;;;36.90;14.80;;;;;;;;;;6158354;23;20009;-82
2023/01/30 11:59:22;;;;;;;38.13;14.80;;;;;;;;;;6186644;23;19997;-81
2023/01/30 12:01:48;;;;;;;33.92;14.13;;;;;;;;;;6192306;23;20020;-82
2023/01/30 12:04:13;;;;;;;27.25;11.65;;;;;;;;;;6184952;23;20005;-82
2023/01/30 12:06:41;;;;;;;29.27;13.50;;;;;;;;;;6184936;23;20000;-83
2023/01/30 12:09:34;;;;;;;34.53;14.45;;;;;;;;;;6134577;23;20539;-83
2023/01/30 12:12:02;;;;;;;33.38;12.55;;;;;;;;;;6184967;23;20005;-83
2023/01/30 12:14:42;;;;;;;34.80;14.70;;;;;;;;;;6184782;23;20005;-83
2023/01/30 12:17:11;;;;;;;;;;;;;;;;;;6159749;23;20352;-80
2023/01/30 12:19:44;;;;;;;32.70;13.70;;;;;;;;;;6185079;23;19915;-80
2023/01/30 12:22:15;;;;;;;36.60;15.13;;;;;;;;;;6189162;23;20036;-82
2023/01/30 12:25:16;;;;;;;43.42;17.25;;;;;;;;;;6199509;23;19997;-82
2023/01/30 12:27:55;;;;;;;36.38;15.40;;;;;;;;;;6173567;23;19997;-82
2023/01/30 12:30:38;;;;;;;37.45;16.10;;;;;;;;;;6170556;23;20012;-82
2023/01/30 12:33:05;;;;;;;36.95;16.08;;;;;;;;;;6188570;23;20001;-82
2023/01/30 12:35:51;;;;;;;38.15;14.70;;;;;;;;;;6161293;23;20428;-81
2023/01/30 12:38:48;;;;;;;42.75;20.55;;;;;;;;;;6137106;23;20361;-83
2023/01/30 12:41:23;;;;;;;43.22;19.88;;;;;;;;;;6163078;23;20005;-82
2023/01/30 12:44:22;;;;;;;32.40;15.05;;;;;;;;;;6185525;23;20004;-82
2023/01/30 12:46:55;;;;;;;31.50;13.65;;;;;;;;;;6186009;23;20005;-83
2023/01/30 12:49:43;;;;;;;33.20;15.20;;;;;;;;;;6159766;23;20005;-81
2023/01/30 12:52:08;;;;;;;38.00;17.15;;;;;;;;;;6187079;23;20013;-82
2023/01/30 12:55:07;;;;;;;32.70;16.50;;;;;;;;;;6186649;23;19997;-82
2023/01/30 12:57:51;;;;;;;42.15;19.17;;;;;;;;;;6187436;23;20016;-82
2023/01/30 13:00:28;;;;;;;42.55;20.08;;;;;;;;;;6185263;23;20005;-81
2023/01/30 13:03:32;;;;;;;44.92;19.70;;;;;;;;;;6186167;23;20399;-81
2023/01/30 13:06:45;;;;;;;41.70;18.10;;;;;;;;;;6140165;23;20001;-81
2023/01/30 13:09:38;;;;;;;46.40;20.63;;;;;;;;;;6095091;23;20017;-82
2023/01/30 13:12:15;;;;;;;44.30;18.63;;;;;;;;;;6072407;23;20010;-82
2023/01/30 13:14:56;;;;;;;48.65;20.63;;;;;;;;;;6139692;23;20009;-82
2023/01/30 13:17:34;;;;;;;45.47;19.40;;;;;;;;;;6186240;23;20031;-83
2023/01/30 13:20:05;;;;;;;44.90;19.55;;;;;;;;;;6187466;23;20009;-82
2023/01/30 13:23:01;;;;;;;46.55;18.75;;;;;;;;;;6185757;23;20001;-82
2023/01/30 13:25:37;;;;;;;51.00;18.45;;;;;;;;;;6161077;23;20391;-83
2023/01/30 13:28:08;;;;;;;41.40;18.40;;;;;;;;;;6163796;23;20028;-83
2023/01/30 13:30:34;;;;;;;52.30;20.83;;;;;;;;;;6185954;23;20029;-82
2023/01/30 13:33:10;;;;;;;55.15;20.05;;;;;;;;;;6188345;23;20009;-83
2023/01/30 13:35:50;;;;;;;53.70;22.35;;;;;;;;;;6163331;23;20005;-82
2023/01/30 13:38:20;;;;;;;54.42;23.42;;;;;;;;;;6186662;23;20019;-80
2023/01/30 13:40:46;;;;;;;51.47;20.48;;;;;;;;;;6189973;23;20012;-81
2023/01/30 13:43:36;;;;;;;59.90;20.90;;;;;;;;;;6189374;23;20076;-80
2023/01/30 13:46:07;;;;;;;54.70;19.55;;;;;;;;;;6177668;23;20009;-80
2023/01/30 13:48:41;;;;;;;55.75;22.40;;;;;;;;;;6188531;23;20004;-81
2023/01/30 13:51:41;;;;;;;59.25;21.20;;;;;;;;;;6188337;23;20425;-82
2023/01/30 13:54:46;;;;;;;50.13;19.52;;;;;;;;;;6188397;23;20052;-83
2023/01/30 13:57:26;;;;;;;64.95;23.85;;;;;;;;;;6095878;23;20426;-82
2023/01/30 13:59:52;;;;;;;58.53;22.73;;;;;;;;;;6096442;23;20476;-81
2023/01/30 14:02:21;;;;;;;59.88;20.15;;;;;;;;;;6141874;23;20040;-82
2023/01/30 14:04:51;;;;;;;59.38;21.20;;;;;;;;;;6185645;23;20008;-83
2023/01/30 14:07:21;;;;;;;77.22;25.80;;;;;;;;;;6159287;23;20079;-83
2023/01/30 14:10:08;;;;;;;69.88;25.27;;;;;;;;;;6187583;23;20400;-83
2023/01/30 14:12:38;;;;;;;74.50;30.20;;;;;;;;;;6185924;23;20015;-81
2023/01/30 14:15:04;;;;;;;112.78;40.88;;;;;;;;;;6183548;23;20009;-82
2023/01/30 14:17:29;;;;;;;124.93;48.85;;;;;;;;;;6185135;23;20055;-80
2023/01/30 14:19:59;;;;;;;70.57;25.02;;;;;;;;;;6183699;23;20011;-82
2023/01/30 14:22:31;;;;;;;;;;;;;;;;;;6184295;23;20072;-82
2023/01/30 14:25:21;;;;;;;68.05;25.42;;;;;;;;;;6183706;23;20252;-82
2023/01/30 14:27:59;;;;;;;56.65;19.92;;;;;;;;;;6188550;23;20001;-82
2023/01/30 14:30:34;;;;;;;61.85;21.33;;;;;;;;;;6183816;23;20159;-81
2023/01/30 14:33:01;;;;;;;66.47;23.50;;;;;;;;;;6159660;23;20343;-82
2023/01/30 14:35:30;;;;;;;64.05;22.73;;;;;;;;;;6184469;23;20009;-82
2023/01/30 14:38:05;;;;;;;70.35;24.83;;;;;;;;;;6185211;23;20026;-82
2023/01/30 14:40:32;;;;;;;69.43;25.23;;;;;;;;;;6185229;23;20348;-82
2023/01/30 14:43:15;;;;;;;73.70;24.98;;;;;;;;;;6183024;23;20005;-82
2023/01/30 14:45:57;;;;;;;72.32;23.38;;;;;;;;;;6184663;23;20066;-82
2023/01/30 14:48:59;;;;;;;74.93;24.73;;;;;;;;;;6162856;23;20001;-81
2023/01/30 14:51:34;;;;;;;82.50;24.15;;;;;;;;;;6183801;23;20037;-82
2023/01/30 14:54:02;;;;;;;75.35;23.23;;;;;;;;;;6185650;23;20019;-82
2023/01/30 14:56:43;;;;;;;82.35;25.83;;;;;;;;;;6159435;23;19997;-82
2023/01/30 14:59:28;;;;;;;;;;;;;;;;;;6185022;23;20091;-83